createdAt,value
2018-02-06T00:02:01.679Z,5.50
2018-02-06T00:04:28.559Z,5.30
2018-02-06T00:06:55.419Z,5.40
2018-02-06T00:09:22.239Z,5.65
2018-02-06T00:11:49.098Z,5.80
2018-02-06T00:14:16.015Z,5.37
2018-02-06T00:16:42.842Z,5.57
2018-02-06T00:19:09.666Z,5.50
2018-02-06T00:21:36.556Z,5.75
2018-02-06T00:24:03.678Z,5.45
2018-02-06T00:26:30.601Z,6.03
2018-02-06T00:28:57.496Z,5.50
2018-02-06T00:31:24.315Z,5.80
2018-02-06T00:33:51.130Z,5.70
2018-02-06T00:36:17.970Z,5.65
2018-02-06T00:38:44.813Z,5.60
2018-02-06T00:41:11.661Z,6.20
2018-02-06T00:43:38.542Z,6.20
2018-02-06T00:46:05.410Z,6.32
2018-02-06T00:48:32.524Z,6.55
2018-02-06T00:50:59.387Z,6.10
2018-02-06T00:53:26.520Z,5.70
2018-02-06T00:55:53.330Z,6.10
2018-02-06T00:58:20.402Z,6.12
2018-02-06T01:00:47.222Z,6.17
2018-02-06T01:03:14.074Z,6.10
2018-02-06T01:05:40.932Z,6.03
2018-02-06T01:08:07.983Z,6.35
2018-02-06T01:10:34.950Z,6.55
2018-02-06T01:13:01.775Z,6.40
2018-02-06T01:15:28.602Z,7.30
2018-02-06T01:17:55.436Z,7.00
2018-02-06T01:20:22.312Z,6.80
2018-02-06T01:22:49.163Z,6.80
2018-02-06T01:25:16.298Z,6.60
2018-02-06T01:27:43.183Z,6.80
2018-02-06T01:30:10.048Z,6.87
2018-02-06T01:32:36.866Z,7.20
2018-02-06T01:35:03.975Z,7.00
2018-02-06T01:37:31.031Z,7.72
2018-02-06T01:39:57.880Z,7.07
2018-02-06T01:42:24.738Z,7.80
2018-02-06T01:44:51.554Z,7.30
2018-02-06T01:47:18.416Z,7.10
2018-02-06T01:49:51.329Z,7.30
2018-02-06T01:52:18.174Z,7.40
2018-02-06T01:54:45.294Z,7.60
2018-02-06T01:57:12.423Z,7.82
2018-02-06T01:59:39.576Z,7.33
2018-02-06T02:02:06.623Z,7.40
2018-02-06T02:04:33.497Z,6.93
2018-02-06T02:07:00.351Z,7.37
2018-02-06T02:09:27.461Z,7.40
2018-02-06T02:11:54.330Z,7.30
2018-02-06T02:14:21.179Z,7.10
2018-02-06T02:16:48.300Z,7.85
2018-02-06T02:19:15.443Z,7.70
2018-02-06T02:21:42.288Z,7.40
2018-02-06T02:24:09.209Z,7.53
2018-02-06T02:26:36.048Z,8.05
2018-02-06T02:29:02.873Z,7.60
2018-02-06T02:31:29.719Z,7.93
2018-02-06T02:33:56.865Z,8.02
2018-02-06T02:36:23.701Z,7.40
2018-02-06T02:38:50.808Z,7.95
2018-02-06T02:41:17.680Z,8.27
2018-02-06T04:38:50.735Z,9.32
2018-02-06T04:41:17.884Z,8.82
2018-02-06T04:43:44.768Z,9.30
2018-02-06T04:46:11.976Z,9.52
2018-02-06T04:48:38.828Z,9.00
2018-02-06T04:51:05.672Z,9.32
2018-02-06T04:53:32.768Z,9.40
2018-02-06T04:55:59.651Z,9.07
2018-02-06T04:58:26.492Z,10.10
2018-02-06T05:00:53.346Z,9.20
2018-02-06T05:03:20.500Z,8.82
2018-02-06T05:05:47.643Z,8.90
2018-02-06T05:08:14.792Z,8.60
2018-02-06T05:10:41.600Z,9.50
2018-02-06T05:13:08.684Z,8.95
2018-02-06T05:15:35.592Z,8.90
2018-02-06T05:18:02.670Z,8.90
2018-02-06T05:20:29.527Z,8.75
2018-02-06T05:22:56.666Z,8.75
2018-02-06T05:25:23.487Z,9.00
2018-02-06T05:27:50.693Z,8.68
2018-02-06T05:30:17.815Z,8.60
2018-02-06T05:32:44.903Z,9.02
2018-02-06T05:35:11.718Z,9.10
2018-02-06T05:37:38.557Z,9.52
2018-02-06T05:40:05.415Z,9.55
2018-02-06T05:42:32.550Z,9.75
2018-02-06T05:44:59.422Z,9.38
2018-02-06T05:47:26.251Z,9.45
2018-02-06T05:49:53.088Z,8.93
2018-02-06T05:52:19.930Z,9.20
2018-02-06T05:54:46.775Z,9.40
2018-02-06T05:57:13.620Z,9.30
2018-02-06T05:59:40.486Z,9.38
2018-02-06T06:02:07.332Z,8.82
2018-02-06T06:04:34.195Z,8.60
2018-02-06T06:07:01.028Z,9.10
2018-02-06T06:09:27.882Z,9.50
2018-02-06T06:11:54.963Z,8.57
2018-02-06T06:14:21.793Z,8.50
2018-02-06T06:16:48.964Z,8.80
2018-02-06T06:19:15.774Z,8.80
2018-02-06T06:21:42.644Z,9.30
2018-02-06T06:24:09.487Z,9.30
2018-02-06T06:26:36.336Z,9.45
2018-02-06T06:29:03.478Z,9.60
2018-02-06T06:31:30.636Z,9.43
2018-02-06T06:33:57.447Z,9.50
2018-02-06T06:36:24.320Z,9.70
2018-02-06T06:38:51.164Z,9.23
2018-02-06T06:41:17.975Z,9.55
2018-02-06T06:43:44.806Z,9.52
2018-02-06T06:46:11.631Z,8.98
2018-02-06T06:48:38.738Z,9.43
2018-02-06T06:51:05.570Z,9.40
2018-02-06T06:53:32.390Z,9.32
2018-02-06T06:55:59.237Z,9.00
2018-02-06T06:58:26.424Z,8.80
2018-02-06T07:00:53.571Z,9.37
2018-02-06T07:03:20.416Z,8.90
2018-02-06T07:05:47.258Z,9.30
2018-02-06T07:08:14.096Z,8.80
2018-02-06T07:10:40.940Z,9.95
2018-02-06T07:13:07.771Z,9.98
2018-02-06T07:15:34.619Z,9.13
2018-02-06T07:18:01.431Z,9.60
2018-02-06T07:20:28.515Z,9.52
2018-02-06T07:22:55.666Z,9.18
2018-02-06T07:25:22.518Z,9.50
2018-02-06T07:27:49.362Z,9.38
2018-02-06T07:30:16.179Z,9.27
2018-02-06T07:32:43.346Z,9.20
2018-02-06T07:35:10.518Z,9.82
2018-02-06T07:37:37.460Z,9.35
2018-02-06T07:40:04.272Z,9.00
2018-02-06T07:42:31.103Z,8.93
2018-02-06T07:44:58.288Z,9.10
2018-02-06T07:47:25.107Z,9.00
2018-02-06T07:49:52.010Z,9.45
2018-02-06T07:52:18.899Z,9.15
2018-02-06T07:54:46.011Z,9.15
2018-02-06T07:57:12.880Z,9.05
2018-02-06T07:59:39.723Z,8.98
2018-02-06T08:02:06.530Z,9.00
2018-02-06T08:04:33.644Z,9.85
2018-02-06T08:07:00.483Z,9.50
2018-02-06T08:09:27.324Z,9.45
2018-02-06T08:11:54.190Z,9.10
2018-02-06T08:14:22.248Z,9.10
2018-02-06T08:16:49.081Z,9.17
2018-02-06T08:19:15.940Z,9.67
2018-02-06T08:21:42.804Z,9.20
2018-02-06T08:24:09.928Z,9.15
2018-02-06T08:26:36.791Z,9.30
2018-02-06T08:29:03.930Z,8.80
2018-02-06T08:31:30.743Z,9.80
2018-02-06T08:33:57.612Z,9.48
2018-02-06T08:36:24.462Z,9.98
2018-02-06T08:38:51.595Z,10.90
2018-02-06T08:41:18.743Z,9.60
2018-02-06T08:43:45.550Z,9.15
2018-02-06T08:46:12.401Z,9.30
2018-02-06T08:48:39.506Z,9.40
2018-02-06T08:51:06.356Z,9.30
2018-02-06T08:53:33.476Z,9.82
2018-02-06T08:56:00.382Z,9.30
2018-02-06T08:58:27.468Z,9.50
2018-02-06T09:00:54.279Z,9.90
2018-02-06T09:03:21.464Z,10.60
2018-02-06T09:05:48.295Z,10.25
2018-02-06T09:08:15.122Z,9.95
2018-02-06T09:10:42.009Z,10.93
2018-02-06T09:13:08.869Z,11.77
2018-02-06T09:15:35.690Z,11.40
2018-02-06T09:18:02.832Z,12.13
2018-02-06T09:20:29.980Z,13.48
2018-02-06T09:22:57.243Z,10.53
2018-02-06T09:25:24.386Z,9.50
2018-02-06T09:27:51.540Z,9.10
2018-02-06T09:30:18.352Z,9.32
2018-02-06T09:32:45.248Z,8.40
2018-02-06T09:35:12.063Z,8.45
2018-02-06T09:37:39.206Z,8.40
2018-02-06T09:40:06.364Z,7.90
2018-02-06T09:42:33.218Z,8.73
2018-02-06T09:45:00.354Z,8.45
2018-02-06T09:47:27.228Z,7.97
2018-02-06T09:49:54.347Z,8.30
2018-02-06T09:52:21.513Z,8.40
2018-02-06T09:54:48.438Z,9.10
2018-02-06T09:57:15.276Z,8.10
2018-02-06T09:59:42.335Z,7.70
2018-02-06T10:02:09.203Z,8.00
2018-02-06T10:04:36.049Z,8.00
2018-02-06T10:07:02.855Z,7.40
2018-02-06T10:09:29.723Z,7.62
2018-02-06T10:11:56.539Z,7.85
2018-02-06T10:14:23.358Z,7.18
2018-02-06T10:16:50.555Z,7.10
2018-02-06T10:19:17.402Z,7.05
2018-02-06T10:21:44.235Z,6.95
2018-02-06T10:24:11.377Z,7.05
2018-02-06T10:26:38.199Z,6.97
2018-02-06T10:29:05.042Z,7.40
2018-02-06T10:31:32.219Z,6.40
2018-02-06T10:33:59.067Z,7.20
2018-02-06T10:36:25.881Z,7.30
2018-02-06T10:38:52.751Z,7.00
2018-02-06T10:41:19.571Z,7.35
2018-02-06T10:43:46.743Z,7.40
2018-02-06T10:46:13.566Z,7.80
2018-02-06T10:48:40.407Z,8.10
2018-02-06T10:51:07.213Z,7.95
2018-02-06T10:53:34.135Z,7.15
2018-02-06T10:56:01.263Z,5.12
2018-02-06T10:58:28.157Z,6.20
2018-02-06T11:00:55.260Z,6.20
2018-02-06T11:03:22.103Z,6.75
2018-02-06T11:05:48.947Z,6.30
2018-02-06T11:08:15.807Z,6.70
2018-02-06T11:10:42.614Z,6.32
2018-02-06T11:13:09.472Z,6.25
2018-02-06T11:15:36.370Z,6.30
2018-02-06T11:18:03.186Z,6.40
2018-02-06T11:20:30.311Z,5.62
2018-02-06T11:22:57.199Z,6.07
2018-02-06T11:25:24.003Z,6.15
2018-02-06T11:27:50.844Z,5.70
2018-02-06T11:30:17.703Z,5.75
2018-02-06T11:32:44.521Z,6.20
2018-02-06T11:35:11.355Z,5.70
2018-02-06T11:37:38.182Z,6.30
2018-02-06T11:40:05.031Z,5.70
2018-02-06T11:42:32.115Z,5.65
2018-02-06T11:44:59.254Z,5.72
2018-02-06T11:47:26.066Z,5.57
2018-02-06T11:49:52.918Z,5.97
2018-02-06T11:52:19.985Z,6.10
2018-02-06T11:54:46.831Z,5.72
2018-02-06T11:57:13.679Z,5.70
2018-02-06T11:59:40.547Z,5.87
2018-02-06T12:02:07.411Z,4.72
2018-02-06T12:04:34.267Z,4.53
2018-02-06T12:07:01.094Z,4.50
2018-02-06T12:09:27.943Z,4.32
2018-02-06T12:11:54.791Z,4.30
2018-02-06T12:14:21.648Z,4.50
2018-02-06T12:16:48.727Z,4.00
2018-02-06T12:19:15.534Z,3.80
2018-02-06T12:21:42.374Z,4.35
2018-02-06T12:24:09.227Z,4.70
2018-02-06T12:26:36.303Z,3.80
2018-02-06T12:29:03.455Z,4.32
2018-02-06T12:31:30.602Z,4.10
2018-02-06T12:33:57.459Z,4.43
2018-02-06T12:36:24.278Z,4.10
2018-02-06T12:38:51.083Z,4.10
2018-02-06T12:41:18.183Z,4.03
2018-02-06T12:43:45.331Z,4.10
2018-02-06T12:46:12.186Z,4.00
2018-02-06T12:48:39.039Z,4.30
2018-02-06T12:51:05.870Z,4.32
2018-02-06T12:53:32.716Z,4.40
2018-02-06T12:55:59.542Z,4.00
2018-02-06T12:58:26.707Z,4.55
2018-02-06T13:00:53.515Z,4.40
2018-02-06T13:03:20.371Z,4.55
2018-02-06T13:05:47.537Z,4.13
2018-02-06T13:08:14.354Z,4.53
2018-02-06T13:10:41.216Z,3.95
2018-02-06T13:13:08.103Z,4.37
2018-02-06T13:15:35.221Z,4.30
2018-02-06T13:18:02.075Z,4.35
2018-02-06T13:20:29.213Z,4.78
2018-02-06T13:22:56.358Z,4.57
2018-02-06T13:25:23.208Z,4.80
2018-02-06T13:27:50.068Z,5.10
2018-02-06T13:30:16.903Z,4.10
2018-02-06T13:32:44.034Z,5.50
2018-02-06T13:35:10.865Z,6.43
2018-02-06T13:37:37.727Z,6.65
2018-02-06T13:40:04.571Z,4.18
2018-02-06T13:42:31.409Z,4.60
2018-02-06T13:44:58.258Z,3.90
2018-02-06T13:47:25.412Z,4.00
2018-02-06T13:49:52.266Z,4.35
2018-02-06T13:52:19.101Z,4.80
2018-02-06T13:54:45.959Z,3.97
2018-02-06T13:57:13.085Z,4.40
2018-02-06T13:59:39.927Z,4.15
2018-02-06T14:02:06.759Z,3.80
2018-02-06T14:04:33.930Z,4.05
2018-02-06T14:07:00.772Z,4.05
2018-02-06T14:09:27.916Z,4.30
2018-02-06T14:11:54.758Z,3.83
2018-02-06T14:14:21.811Z,3.35
2018-02-06T14:16:48.635Z,3.37
2018-02-06T14:19:15.804Z,3.70
2018-02-06T14:21:42.688Z,3.10
2018-02-06T14:24:09.796Z,3.20
2018-02-06T14:26:36.948Z,3.40
2018-02-06T14:29:03.775Z,3.40
2018-02-06T14:31:30.576Z,3.37
2018-02-06T14:33:57.454Z,3.15
2018-02-06T14:36:24.270Z,3.75
2018-02-06T14:38:51.473Z,3.30
2018-02-06T14:41:18.302Z,3.90
2018-02-06T14:43:45.472Z,4.10
2018-02-06T14:46:12.314Z,3.70
2018-02-06T14:48:39.139Z,3.50
2018-02-06T14:51:05.992Z,3.40
2018-02-06T14:53:33.145Z,3.50
2018-02-06T14:56:00.007Z,3.70
2018-02-06T14:58:26.818Z,3.55
2018-02-06T15:00:53.634Z,3.40
2018-02-06T15:03:20.714Z,3.60
2018-02-06T15:05:47.566Z,3.30
2018-02-06T15:08:14.622Z,3.30
2018-02-06T15:10:41.455Z,3.42
2018-02-06T15:13:08.304Z,3.47
2018-02-06T15:15:35.107Z,3.22
2018-02-06T15:18:01.984Z,3.60
2018-02-06T15:20:29.133Z,3.60
2018-02-06T15:22:55.962Z,3.37
2018-02-06T15:25:23.126Z,3.78
2018-02-06T15:27:50.175Z,3.42
2018-02-06T15:30:17.023Z,4.03
2018-02-06T15:32:44.174Z,3.70
2018-02-06T15:35:11.036Z,3.30
2018-02-06T15:37:38.160Z,3.50
2018-02-06T15:40:05.024Z,3.50
2018-02-06T15:42:32.156Z,3.30
2018-02-06T15:44:59.010Z,3.60
2018-02-06T15:47:25.879Z,3.90
2018-02-06T15:49:52.735Z,3.72
2018-02-06T15:52:19.833Z,3.40
2018-02-06T15:54:46.699Z,3.80
2018-02-06T15:57:13.516Z,3.87
2018-02-06T15:59:40.372Z,4.75
2018-02-06T16:02:07.250Z,4.20
2018-02-06T16:04:34.088Z,3.95
2018-02-06T16:07:00.904Z,3.92
2018-02-06T16:09:27.746Z,4.00
2018-02-06T16:11:54.882Z,4.10
2018-02-06T16:14:22.074Z,3.70
2018-02-06T16:16:48.886Z,3.72
2018-02-06T16:19:16.031Z,4.20
2018-02-06T16:21:42.875Z,4.12
2018-02-06T16:24:09.744Z,4.30
2018-02-06T16:26:36.862Z,4.50
2018-02-06T16:29:03.721Z,4.40
2018-02-06T16:31:30.858Z,4.60
2018-02-06T16:33:57.673Z,3.90
2018-02-06T16:36:24.756Z,4.60
2018-02-06T16:38:51.587Z,4.40
2018-02-06T16:41:18.742Z,4.10
2018-02-06T16:43:45.894Z,4.47
2018-02-06T16:46:12.764Z,4.40
2018-02-06T16:48:39.582Z,4.50
2018-02-06T16:51:06.732Z,4.50
2018-02-06T16:53:33.563Z,4.13
2018-02-06T16:56:00.416Z,4.30
2018-02-06T16:58:27.226Z,4.70
2018-02-06T17:00:54.100Z,4.68
2018-02-06T17:03:21.268Z,4.90
2018-02-06T17:05:48.116Z,4.35
2018-02-06T17:08:15.247Z,4.80
2018-02-06T17:10:42.399Z,4.25
2018-02-06T17:13:09.211Z,4.50
2018-02-06T17:15:36.056Z,4.57
2018-02-06T17:18:02.903Z,4.43
2018-02-06T17:20:29.731Z,5.60
2018-02-06T17:22:56.820Z,4.82
2018-02-06T17:25:23.634Z,4.60
2018-02-06T17:27:50.816Z,4.82
2018-02-06T17:30:17.651Z,4.30
2018-02-06T17:32:44.702Z,4.45
2018-02-06T17:35:11.565Z,4.30
2018-02-06T17:37:38.399Z,4.55
2018-02-06T17:40:05.544Z,4.70
2018-02-06T17:42:32.697Z,4.80
2018-02-06T17:44:59.562Z,4.70
2018-02-06T17:47:26.683Z,4.70
2018-02-06T17:49:53.490Z,4.90
2018-02-06T17:52:20.331Z,5.10
2018-02-06T17:54:47.168Z,4.40
2018-02-06T17:57:14.369Z,5.20
2018-02-06T17:59:41.229Z,4.95
2018-02-06T18:02:08.042Z,5.30
2018-02-06T18:04:34.855Z,5.12
2018-02-06T18:07:01.744Z,5.25
2018-02-06T18:09:28.588Z,4.93
2018-02-06T18:11:55.732Z,4.95
2018-02-06T18:14:22.922Z,5.25
2018-02-06T18:16:50.036Z,5.80
2018-02-06T18:19:16.886Z,5.43
2018-02-06T18:21:43.737Z,5.70
2018-02-06T18:24:10.547Z,5.70
2018-02-06T18:26:37.358Z,5.40
2018-02-06T18:29:04.227Z,5.60
2018-02-06T18:31:31.104Z,5.70
2018-02-06T18:33:57.947Z,5.60
2018-02-06T18:36:25.092Z,11.67
2018-02-06T18:38:51.901Z,9.38
2018-02-06T18:43:59.760Z,13.13
2018-02-06T18:46:26.596Z,8.13
2018-02-06T18:48:53.401Z,5.75
2018-02-06T18:51:20.478Z,5.50
2018-02-06T18:53:47.326Z,5.43
2018-02-06T18:56:14.184Z,5.90
2018-02-06T18:58:41.322Z,6.20
2018-02-06T19:01:08.134Z,6.70
2018-02-06T19:03:34.973Z,6.50
2018-02-06T19:06:01.843Z,6.43
2018-02-06T19:08:28.686Z,6.40
2018-02-06T19:10:55.840Z,5.72
2018-02-06T19:13:22.996Z,5.80
2018-02-06T19:15:50.138Z,6.62
2018-02-06T19:18:17.029Z,6.55
2018-02-06T19:20:43.899Z,6.40
2018-02-06T19:23:10.744Z,9.02
2018-02-06T19:25:37.571Z,8.20
2018-02-06T19:28:04.445Z,10.02
2018-02-06T19:30:31.616Z,11.00
2018-02-06T19:32:58.439Z,12.55
2018-02-06T19:35:25.266Z,7.15
2018-02-06T19:37:52.343Z,6.00
2018-02-06T19:40:19.491Z,6.50
2018-02-06T19:42:46.648Z,6.20
2018-02-06T19:45:13.471Z,6.32
2018-02-06T19:47:40.306Z,6.53
2018-02-06T19:50:07.184Z,6.20
2018-02-06T19:52:34.006Z,7.18
2018-02-06T19:55:01.068Z,8.30
2018-02-06T19:57:27.938Z,7.20
2018-02-06T19:59:54.743Z,6.40
2018-02-06T20:02:21.830Z,6.90
2018-02-06T20:04:48.952Z,6.50
2018-02-06T20:07:15.834Z,6.70
2018-02-06T20:09:42.635Z,6.75
2018-02-06T20:12:09.487Z,6.50
2018-02-06T20:14:36.336Z,8.13
2018-02-06T20:17:03.478Z,13.10
2018-02-06T20:19:30.356Z,11.05
2018-02-06T20:21:57.256Z,8.05
2018-02-06T20:24:24.062Z,7.22
2018-02-06T20:26:51.251Z,7.07
2018-02-06T20:29:18.105Z,6.22
2018-02-06T20:31:44.914Z,6.80
2018-02-06T20:34:11.747Z,6.53
2018-02-06T20:36:38.572Z,7.60
2018-02-06T20:39:05.383Z,7.82
2018-02-06T20:41:32.255Z,8.70
2018-02-06T20:43:59.104Z,8.00
2018-02-06T20:46:25.910Z,7.70
2018-02-06T20:48:53.047Z,9.25
2018-02-06T20:51:19.866Z,11.45
2018-02-06T20:53:46.687Z,18.60
2018-02-06T20:56:13.527Z,14.13
2018-02-06T20:58:40.412Z,10.55
2018-02-06T21:01:07.576Z,7.40
2018-02-06T21:03:34.723Z,7.00
2018-02-06T21:06:01.612Z,6.65
2018-02-06T21:08:28.431Z,6.30
2018-02-06T21:10:55.296Z,6.80
2018-02-06T21:13:22.399Z,6.90
2018-02-06T21:15:49.550Z,6.70
2018-02-06T21:18:16.410Z,6.90
2018-02-06T21:20:43.590Z,6.75
2018-02-06T21:23:10.404Z,6.72
2018-02-06T21:25:37.534Z,6.60
2018-02-06T21:28:04.342Z,7.10
2018-02-06T21:30:31.151Z,6.63
2018-02-06T21:32:58.036Z,6.83
2018-02-06T21:35:24.852Z,7.13
2018-02-06T21:37:51.658Z,7.80
2018-02-06T21:40:18.486Z,6.40
2018-02-06T21:42:45.302Z,7.20
2018-02-06T21:45:12.382Z,7.37
2018-02-06T21:47:39.249Z,7.12
2018-02-06T21:50:06.095Z,7.35
2018-02-06T21:52:33.175Z,7.43
2018-02-06T21:55:00.033Z,9.70
2018-02-06T21:57:26.855Z,12.90
2018-02-06T21:59:53.742Z,10.50
2018-02-06T22:02:20.616Z,7.60
2018-02-06T22:04:47.439Z,9.80
2018-02-06T22:07:14.592Z,8.00
2018-02-06T22:09:41.418Z,7.60
2018-02-06T22:12:08.234Z,7.43
2018-02-06T22:14:35.356Z,7.90
2018-02-06T22:17:02.216Z,8.30
2018-02-06T22:19:29.056Z,7.07
2018-02-06T22:21:56.164Z,7.53
2018-02-06T22:24:23.075Z,7.40
2018-02-06T22:26:50.151Z,7.40
2018-02-06T22:29:16.986Z,8.07
2018-02-06T22:31:43.861Z,7.62
2018-02-06T22:34:10.992Z,7.35
2018-02-06T22:36:38.333Z,7.40
2018-02-06T22:39:06.827Z,7.62
2018-02-06T22:41:33.685Z,7.60
2018-02-06T22:44:00.564Z,8.10
2018-02-06T22:46:27.658Z,7.60
2018-02-06T22:48:54.503Z,7.53
2018-02-06T22:51:21.551Z,7.50
2018-02-06T22:53:48.390Z,7.20
2018-02-06T22:56:15.202Z,7.72
2018-02-06T22:58:42.292Z,7.53
2018-02-06T23:01:09.442Z,8.18
2018-02-06T23:03:36.279Z,8.17
2018-02-06T23:06:03.099Z,8.10
2018-02-06T23:08:29.996Z,7.60
2018-02-06T23:10:56.801Z,7.97
2018-02-06T23:13:23.648Z,7.40
2018-02-06T23:15:50.510Z,8.00
2018-02-06T23:18:17.354Z,7.70
2018-02-06T23:20:44.502Z,7.30
2018-02-06T23:23:11.384Z,7.60
2018-02-06T23:25:38.482Z,8.02
2018-02-06T23:28:05.369Z,7.70
2018-02-06T23:30:32.198Z,7.80
2018-02-06T23:32:59.015Z,7.78
2018-02-06T23:35:25.880Z,8.63
2018-02-06T23:37:52.738Z,7.82
2018-02-06T23:40:19.554Z,8.00
2018-02-06T23:42:46.696Z,8.45
2018-02-06T23:45:13.622Z,8.50
2018-02-06T23:47:40.491Z,8.65
2018-02-06T23:50:07.295Z,8.68
2018-02-06T23:52:34.163Z,8.55
2018-02-06T23:55:01.019Z,8.20
2018-02-06T23:57:27.873Z,8.30
2018-02-06T23:59:54.756Z,8.27
